2MeteoStar Phoenix Sky Harbor International Airport FORECAST
Forecast For: Phoenix, Arizona
Mostly Cloudy
 
Currently: Phoenix Sky Harbor International Airport 15:51 GMT
Weather:Mostly Cloudy Humidity:50%
Temperature:31 ° C Wind:ENE 28 kph
Dew Point:19 ° C Pressure:1013 mb
Feels Like:32 ° C Visibility:16 km
Print Legend
24 Hour Weather Trace
Regional Observations
Daily Climate Plot
Monthly Climate Plot

Regional Radar Image
National Radar Image
Regional Satellite Image
National Satellite Image
Short Range Forecast Trace
Long Range Forecast Trace
NWS Forecast Discussion
16 Day Forecast
Radar For: Phoenix,AZ 08/21/2018 16:09 GMT
CLICK FOR LOOP




METAR:KPHX 211551Z 06015KT 10SM FEW070 FEW095 BKN210 BKN250 31/19 A2999 RMK AO2 SLP133 T03060194 =
TAF:

TAFPHX
TAF AMD
KPHX 211442Z 2115/2218 07010G18KT P6SM BKN120 BKN200
FM212200 22008KT P6SM SCT100 BKN250
FM220300 14012KT P6SM VCSH SCT080 BKN120
FM220600 12005KT P6SM BKN120 BKN250 =

NWS Forecast for:
Greater Phoenix Area


Visit the MeteoStar Home Page